sensor_id;sensor_type;location;lat;lon;timestamp;P1;durP1;ratioP1;P2;durP2;ratioP2
13309;SDS011;6723;48.256;16.402;2022-07-22T00:01:34;9.73;;;8.17;;
13309;SDS011;6723;48.256;16.402;2022-07-22T00:04:00;10.87;;;8.60;;
13309;SDS011;6723;48.256;16.402;2022-07-22T00:06:28;10.23;;;8.60;;
13309;SDS011;6723;48.256;16.402;2022-07-22T00:08:54;9.20;;;8.13;;
13309;SDS011;6723;48.256;16.402;2022-07-22T00:11:21;8.97;;;7.93;;
13309;SDS011;6723;48.256;16.402;2022-07-22T00:13:47;8.10;;;7.33;;
13309;SDS011;6723;48.256;16.402;2022-07-22T00:16:13;8.23;;;7.43;;
13309;SDS011;6723;48.256;16.402;2022-07-22T00:18:39;8.93;;;7.80;;
13309;SDS011;6723;48.256;16.402;2022-07-22T00:21:12;9.10;;;8.17;;
13309;SDS011;6723;48.256;16.402;2022-07-22T00:23:38;10.17;;;7.53;;
13309;SDS011;6723;48.256;16.402;2022-07-22T00:26:03;8.57;;;7.67;;
13309;SDS011;6723;48.256;16.402;2022-07-22T00:28:29;9.57;;;7.93;;
13309;SDS011;6723;48.256;16.402;2022-07-22T00:30:55;8.30;;;7.50;;
13309;SDS011;6723;48.256;16.402;2022-07-22T00:33:22;8.27;;;7.43;;
13309;SDS011;6723;48.256;16.402;2022-07-22T00:35:47;8.53;;;7.47;;
13309;SDS011;6723;48.256;16.402;2022-07-22T00:38:13;7.70;;;6.90;;
13309;SDS011;6723;48.256;16.402;2022-07-22T00:40:39;8.53;;;7.63;;
13309;SDS011;6723;48.256;16.402;2022-07-22T00:43:05;8.97;;;7.80;;
13309;SDS011;6723;48.256;16.402;2022-07-22T00:45:31;9.57;;;7.90;;
13309;SDS011;6723;48.256;16.402;2022-07-22T00:47:57;9.27;;;7.57;;
13309;SDS011;6723;48.256;16.402;2022-07-22T00:50:23;8.83;;;7.70;;
13309;SDS011;6723;48.256;16.402;2022-07-22T00:52:49;8.07;;;7.37;;
13309;SDS011;6723;48.256;16.402;2022-07-22T00:55:15;9.30;;;6.97;;
13309;SDS011;6723;48.256;16.402;2022-07-22T00:57:42;8.57;;;7.70;;
13309;SDS011;6723;48.256;16.402;2022-07-22T01:00:09;9.90;;;7.53;;
13309;SDS011;6723;48.256;16.402;2022-07-22T01:02:37;8.63;;;7.47;;
13309;SDS011;6723;48.256;16.402;2022-07-22T01:05:04;9.03;;;8.00;;
13309;SDS011;6723;48.256;16.402;2022-07-22T01:07:31;8.77;;;7.97;;
13309;SDS011;6723;48.256;16.402;2022-07-22T01:09:57;8.70;;;7.93;;
13309;SDS011;6723;48.256;16.402;2022-07-22T01:12:23;9.80;;;8.50;;
13309;SDS011;6723;48.256;16.402;2022-07-22T01:14:49;9.07;;;7.77;;
13309;SDS011;6723;48.256;16.402;2022-07-22T01:17:14;10.83;;;7.90;;
13309;SDS011;6723;48.256;16.402;2022-07-22T01:19:41;9.43;;;8.40;;
13309;SDS011;6723;48.256;16.402;2022-07-22T01:22:07;9.53;;;8.03;;
13309;SDS011;6723;48.256;16.402;2022-07-22T01:24:33;11.63;;;7.83;;
13309;SDS011;6723;48.256;16.402;2022-07-22T01:26:59;8.73;;;7.83;;
13309;SDS011;6723;48.256;16.402;2022-07-22T01:29:24;10.07;;;8.50;;
13309;SDS011;6723;48.256;16.402;2022-07-22T01:31:51;11.33;;;8.73;;
13309;SDS011;6723;48.256;16.402;2022-07-22T01:34:17;9.40;;;8.50;;
13309;SDS011;6723;48.256;16.402;2022-07-22T01:36:43;11.10;;;8.40;;
13309;SDS011;6723;48.256;16.402;2022-07-22T01:39:09;8.93;;;8.03;;
13309;SDS011;6723;48.256;16.402;2022-07-22T01:41:35;10.40;;;8.50;;
13309;SDS011;6723;48.256;16.402;2022-07-22T01:44:00;11.20;;;8.93;;
13309;SDS011;6723;48.256;16.402;2022-07-22T01:46:26;9.13;;;8.33;;
13309;SDS011;6723;48.256;16.402;2022-07-22T01:48:52;10.10;;;9.20;;
13309;SDS011;6723;48.256;16.402;2022-07-22T01:51:18;10.33;;;8.73;;
13309;SDS011;6723;48.256;16.402;2022-07-22T01:53:44;9.60;;;8.67;;
13309;SDS011;6723;48.256;16.402;2022-07-22T01:56:10;10.83;;;8.30;;
13309;SDS011;6723;48.256;16.402;2022-07-22T01:58:36;9.67;;;8.63;;
13309;SDS011;6723;48.256;16.402;2022-07-22T02:01:02;10.00;;;8.87;;
13309;SDS011;6723;48.256;16.402;2022-07-22T02:03:28;11.60;;;8.93;;
13309;SDS011;6723;48.256;16.402;2022-07-22T02:05:53;9.63;;;8.63;;
13309;SDS011;6723;48.256;16.402;2022-07-22T02:08:19;10.07;;;8.33;;
13309;SDS011;6723;48.256;16.402;2022-07-22T02:10:45;9.00;;;8.17;;
13309;SDS011;6723;48.256;16.402;2022-07-22T02:13:11;10.23;;;8.63;;
13309;SDS011;6723;48.256;16.402;2022-07-22T02:15:37;11.53;;;8.60;;
13309;SDS011;6723;48.256;16.402;2022-07-22T02:18:12;9.60;;;8.57;;
13309;SDS011;6723;48.256;16.402;2022-07-22T02:20:40;9.60;;;8.70;;
13309;SDS011;6723;48.256;16.402;2022-07-22T02:23:06;10.87;;;8.63;;
13309;SDS011;6723;48.256;16.402;2022-07-22T02:25:33;10.10;;;9.20;;
13309;SDS011;6723;48.256;16.402;2022-07-22T02:28:00;11.30;;;9.20;;
13309;SDS011;6723;48.256;16.402;2022-07-22T02:30:26;9.00;;;8.13;;
13309;SDS011;6723;48.256;16.402;2022-07-22T02:32:52;9.20;;;8.30;;
13309;SDS011;6723;48.256;16.402;2022-07-22T02:35:17;9.73;;;8.80;;
13309;SDS011;6723;48.256;16.402;2022-07-22T02:37:43;9.20;;;8.30;;
13309;SDS011;6723;48.256;16.402;2022-07-22T02:40:09;10.20;;;8.40;;
13309;SDS011;6723;48.256;16.402;2022-07-22T02:42:35;10.47;;;9.43;;
13309;SDS011;6723;48.256;16.402;2022-07-22T02:45:01;11.77;;;8.77;;
13309;SDS011;6723;48.256;16.402;2022-07-22T02:47:28;10.77;;;8.63;;
13309;SDS011;6723;48.256;16.402;2022-07-22T02:49:54;10.40;;;9.17;;
13309;SDS011;6723;48.256;16.402;2022-07-22T02:52:20;9.47;;;8.47;;
13309;SDS011;6723;48.256;16.402;2022-07-22T02:54:45;9.70;;;8.80;;
13309;SDS011;6723;48.256;16.402;2022-07-22T02:57:11;13.13;;;9.37;;
13309;SDS011;6723;48.256;16.402;2022-07-22T02:59:37;9.60;;;8.60;;
13309;SDS011;6723;48.256;16.402;2022-07-22T03:02:03;10.70;;;8.33;;
13309;SDS011;6723;48.256;16.402;2022-07-22T03:04:29;11.30;;;8.77;;
13309;SDS011;6723;48.256;16.402;2022-07-22T03:06:55;9.73;;;8.73;;
13309;SDS011;6723;48.256;16.402;2022-07-22T03:09:20;11.50;;;8.73;;
13309;SDS011;6723;48.256;16.402;2022-07-22T03:11:46;9.93;;;8.93;;
13309;SDS011;6723;48.256;16.402;2022-07-22T03:14:12;10.37;;;9.27;;
13309;SDS011;6723;48.256;16.402;2022-07-22T03:16:38;10.07;;;9.00;;
13309;SDS011;6723;48.256;16.402;2022-07-22T03:19:04;10.10;;;9.07;;
13309;SDS011;6723;48.256;16.402;2022-07-22T03:21:30;11.90;;;9.10;;
13309;SDS011;6723;48.256;16.402;2022-07-22T03:23:56;10.20;;;9.07;;
13309;SDS011;6723;48.256;16.402;2022-07-22T03:26:22;9.77;;;8.87;;
13309;SDS011;6723;48.256;16.402;2022-07-22T03:28:48;10.20;;;9.27;;
13309;SDS011;6723;48.256;16.402;2022-07-22T03:31:15;9.87;;;8.93;;
13309;SDS011;6723;48.256;16.402;2022-07-22T03:33:41;10.80;;;9.20;;
13309;SDS011;6723;48.256;16.402;2022-07-22T03:36:07;16.30;;;9.40;;
13309;SDS011;6723;48.256;16.402;2022-07-22T03:38:33;11.73;;;9.80;;
13309;SDS011;6723;48.256;16.402;2022-07-22T03:41:00;10.27;;;9.27;;
13309;SDS011;6723;48.256;16.402;2022-07-22T03:43:26;10.97;;;9.43;;
13309;SDS011;6723;48.256;16.402;2022-07-22T03:45:51;10.33;;;9.30;;
13309;SDS011;6723;48.256;16.402;2022-07-22T03:48:17;10.50;;;9.40;;
13309;SDS011;6723;48.256;16.402;2022-07-22T03:50:43;11.23;;;9.83;;
13309;SDS011;6723;48.256;16.402;2022-07-22T03:53:09;10.60;;;9.60;;
13309;SDS011;6723;48.256;16.402;2022-07-22T03:55:35;10.40;;;9.50;;
13309;SDS011;6723;48.256;16.402;2022-07-22T03:58:00;11.57;;;9.70;;
13309;SDS011;6723;48.256;16.402;2022-07-22T04:00:26;12.27;;;9.40;;
13309;SDS011;6723;48.256;16.402;2022-07-22T04:02:52;11.10;;;9.90;;
13309;SDS011;6723;48.256;16.402;2022-07-22T04:05:18;11.60;;;10.13;;
13309;SDS011;6723;48.256;16.402;2022-07-22T04:07:43;10.40;;;9.40;;
13309;SDS011;6723;48.256;16.402;2022-07-22T04:10:09;10.93;;;9.80;;
13309;SDS011;6723;48.256;16.402;2022-07-22T04:12:36;11.43;;;10.30;;
13309;SDS011;6723;48.256;16.402;2022-07-22T04:15:03;12.93;;;10.03;;
13309;SDS011;6723;48.256;16.402;2022-07-22T04:17:30;10.80;;;9.80;;
13309;SDS011;6723;48.256;16.402;2022-07-22T04:19:56;10.57;;;9.37;;
13309;SDS011;6723;48.256;16.402;2022-07-22T04:22:22;11.43;;;9.87;;
13309;SDS011;6723;48.256;16.402;2022-07-22T04:24:48;14.90;;;9.60;;
13309;SDS011;6723;48.256;16.402;2022-07-22T04:27:14;12.07;;;10.13;;
13309;SDS011;6723;48.256;16.402;2022-07-22T04:29:40;12.93;;;10.13;;
13309;SDS011;6723;48.256;16.402;2022-07-22T04:32:06;11.07;;;9.90;;
13309;SDS011;6723;48.256;16.402;2022-07-22T04:34:31;11.20;;;10.10;;
13309;SDS011;6723;48.256;16.402;2022-07-22T04:36:57;10.83;;;9.73;;
13309;SDS011;6723;48.256;16.402;2022-07-22T04:39:24;10.97;;;9.90;;
13309;SDS011;6723;48.256;16.402;2022-07-22T04:41:49;13.17;;;10.20;;
13309;SDS011;6723;48.256;16.402;2022-07-22T04:44:15;12.37;;;10.60;;
13309;SDS011;6723;48.256;16.402;2022-07-22T04:46:41;12.13;;;10.27;;
13309;SDS011;6723;48.256;16.402;2022-07-22T04:49:06;12.37;;;9.97;;
13309;SDS011;6723;48.256;16.402;2022-07-22T04:51:32;13.50;;;10.57;;
13309;SDS011;6723;48.256;16.402;2022-07-22T04:53:58;12.70;;;10.03;;
13309;SDS011;6723;48.256;16.402;2022-07-22T04:56:23;13.00;;;10.57;;
13309;SDS011;6723;48.256;16.402;2022-07-22T04:58:49;18.13;;;10.33;;
13309;SDS011;6723;48.256;16.402;2022-07-22T05:01:16;10.97;;;9.87;;
13309;SDS011;6723;48.256;16.402;2022-07-22T05:03:42;12.17;;;9.50;;
13309;SDS011;6723;48.256;16.402;2022-07-22T05:06:08;11.40;;;10.17;;
13309;SDS011;6723;48.256;16.402;2022-07-22T05:08:34;11.97;;;9.73;;
13309;SDS011;6723;48.256;16.402;2022-07-22T05:11:01;10.90;;;9.90;;
13309;SDS011;6723;48.256;16.402;2022-07-22T05:13:27;14.50;;;9.33;;
13309;SDS011;6723;48.256;16.402;2022-07-22T05:15:53;12.33;;;9.77;;
13309;SDS011;6723;48.256;16.402;2022-07-22T05:18:19;13.37;;;10.53;;
13309;SDS011;6723;48.256;16.402;2022-07-22T05:20:46;10.73;;;9.50;;
13309;SDS011;6723;48.256;16.402;2022-07-22T05:23:12;12.50;;;9.87;;
13309;SDS011;6723;48.256;16.402;2022-07-22T05:25:38;13.93;;;9.70;;
13309;SDS011;6723;48.256;16.402;2022-07-22T05:28:03;11.43;;;9.93;;
13309;SDS011;6723;48.256;16.402;2022-07-22T05:30:29;11.03;;;9.43;;
13309;SDS011;6723;48.256;16.402;2022-07-22T05:32:55;10.37;;;9.27;;
13309;SDS011;6723;48.256;16.402;2022-07-22T05:35:34;11.20;;;9.60;;
13309;SDS011;6723;48.256;16.402;2022-07-22T05:38:00;13.77;;;9.57;;
13309;SDS011;6723;48.256;16.402;2022-07-22T05:40:26;11.37;;;8.60;;
13309;SDS011;6723;48.256;16.402;2022-07-22T05:42:51;11.50;;;9.13;;
13309;SDS011;6723;48.256;16.402;2022-07-22T05:45:17;10.70;;;9.30;;
13309;SDS011;6723;48.256;16.402;2022-07-22T05:47:43;10.80;;;9.23;;
13309;SDS011;6723;48.256;16.402;2022-07-22T05:50:09;10.33;;;9.03;;
13309;SDS011;6723;48.256;16.402;2022-07-22T05:52:35;11.67;;;8.70;;
13309;SDS011;6723;48.256;16.402;2022-07-22T05:55:02;10.27;;;9.27;;
13309;SDS011;6723;48.256;16.402;2022-07-22T05:57:28;10.03;;;9.03;;
13309;SDS011;6723;48.256;16.402;2022-07-22T05:59:54;10.27;;;8.90;;
13309;SDS011;6723;48.256;16.402;2022-07-22T06:02:20;10.93;;;9.07;;
13309;SDS011;6723;48.256;16.402;2022-07-22T06:04:46;11.27;;;8.63;;
13309;SDS011;6723;48.256;16.402;2022-07-22T06:07:20;11.67;;;8.83;;
13309;SDS011;6723;48.256;16.402;2022-07-22T06:10:03;9.77;;;8.87;;
13309;SDS011;6723;48.256;16.402;2022-07-22T06:12:29;10.10;;;8.93;;
13309;SDS011;6723;48.256;16.402;2022-07-22T06:17:24;10.97;;;8.97;;
13309;SDS011;6723;48.256;16.402;2022-07-22T06:19:50;11.70;;;9.07;;
13309;SDS011;6723;48.256;16.402;2022-07-22T06:22:16;10.97;;;9.40;;
13309;SDS011;6723;48.256;16.402;2022-07-22T06:24:43;9.87;;;8.90;;
13309;SDS011;6723;48.256;16.402;2022-07-22T06:27:09;12.57;;;9.07;;
13309;SDS011;6723;48.256;16.402;2022-07-22T06:29:36;10.67;;;9.20;;
13309;SDS011;6723;48.256;16.402;2022-07-22T06:32:02;9.27;;;8.37;;
13309;SDS011;6723;48.256;16.402;2022-07-22T06:34:28;9.47;;;8.23;;
13309;SDS011;6723;48.256;16.402;2022-07-22T06:36:54;9.87;;;8.20;;
13309;SDS011;6723;48.256;16.402;2022-07-22T06:39:20;10.87;;;9.00;;
13309;SDS011;6723;48.256;16.402;2022-07-22T06:41:46;10.30;;;8.30;;
13309;SDS011;6723;48.256;16.402;2022-07-22T06:44:12;10.73;;;7.97;;
13309;SDS011;6723;48.256;16.402;2022-07-22T06:46:38;13.10;;;8.43;;
13309;SDS011;6723;48.256;16.402;2022-07-22T06:49:05;9.17;;;8.27;;
13309;SDS011;6723;48.256;16.402;2022-07-22T06:51:32;9.37;;;8.43;;
13309;SDS011;6723;48.256;16.402;2022-07-22T06:53:59;9.37;;;8.57;;
13309;SDS011;6723;48.256;16.402;2022-07-22T06:56:25;10.03;;;8.90;;
13309;SDS011;6723;48.256;16.402;2022-07-22T06:58:51;9.53;;;8.53;;
13309;SDS011;6723;48.256;16.402;2022-07-22T07:01:16;11.20;;;10.10;;
13309;SDS011;6723;48.256;16.402;2022-07-22T07:03:42;10.03;;;9.03;;
13309;SDS011;6723;48.256;16.402;2022-07-22T07:06:09;10.60;;;8.33;;
13309;SDS011;6723;48.256;16.402;2022-07-22T07:08:36;13.43;;;8.47;;
13309;SDS011;6723;48.256;16.402;2022-07-22T07:11:03;8.53;;;7.83;;
13309;SDS011;6723;48.256;16.402;2022-07-22T07:13:29;9.50;;;8.63;;
13309;SDS011;6723;48.256;16.402;2022-07-22T07:15:55;10.70;;;8.40;;
13309;SDS011;6723;48.256;16.402;2022-07-22T07:18:21;10.10;;;8.03;;
13309;SDS011;6723;48.256;16.402;2022-07-22T07:20:47;9.40;;;8.30;;
13309;SDS011;6723;48.256;16.402;2022-07-22T07:23:13;9.77;;;8.13;;
13309;SDS011;6723;48.256;16.402;2022-07-22T07:25:39;13.25;;;7.85;;
13309;SDS011;6723;48.256;16.402;2022-07-22T07:28:12;9.07;;;7.00;;
13309;SDS011;6723;48.256;16.402;2022-07-22T07:30:41;7.03;;;6.32;;
13309;SDS011;6723;48.256;16.402;2022-07-22T07:33:07;7.95;;;6.60;;
13309;SDS011;6723;48.256;16.402;2022-07-22T07:35:34;7.00;;;6.30;;
13309;SDS011;6723;48.256;16.402;2022-07-22T07:37:59;6.75;;;5.63;;
13309;SDS011;6723;48.256;16.402;2022-07-22T07:40:25;6.40;;;5.32;;
13309;SDS011;6723;48.256;16.402;2022-07-22T07:42:51;5.90;;;4.90;;
13309;SDS011;6723;48.256;16.402;2022-07-22T07:45:23;6.10;;;4.93;;
13309;SDS011;6723;48.256;16.402;2022-07-22T07:47:49;5.53;;;4.63;;
13309;SDS011;6723;48.256;16.402;2022-07-22T07:50:15;5.97;;;4.55;;
13309;SDS011;6723;48.256;16.402;2022-07-22T07:52:42;4.60;;;4.20;;
13309;SDS011;6723;48.256;16.402;2022-07-22T07:55:12;4.97;;;4.47;;
13309;SDS011;6723;48.256;16.402;2022-07-22T07:57:39;5.53;;;4.28;;
13309;SDS011;6723;48.256;16.402;2022-07-22T08:00:06;6.45;;;4.15;;
13309;SDS011;6723;48.256;16.402;2022-07-22T08:02:34;4.55;;;3.90;;
13309;SDS011;6723;48.256;16.402;2022-07-22T08:05:00;7.30;;;4.30;;
13309;SDS011;6723;48.256;16.402;2022-07-22T08:07:27;5.22;;;4.30;;
13309;SDS011;6723;48.256;16.402;2022-07-22T08:12:57;4.18;;;3.70;;
13309;SDS011;6723;48.256;16.402;2022-07-22T08:15:24;4.22;;;3.83;;
13309;SDS011;6723;48.256;16.402;2022-07-22T08:17:51;5.10;;;4.00;;
13309;SDS011;6723;48.256;16.402;2022-07-22T08:20:17;4.07;;;3.67;;
13309;SDS011;6723;48.256;16.402;2022-07-22T08:22:43;5.68;;;3.90;;
13309;SDS011;6723;48.256;16.402;2022-07-22T08:25:09;5.85;;;3.95;;
13309;SDS011;6723;48.256;16.402;2022-07-22T08:27:35;6.70;;;3.60;;
13309;SDS011;6723;48.256;16.402;2022-07-22T08:30:01;9.82;;;4.10;;
13309;SDS011;6723;48.256;16.402;2022-07-22T08:32:30;4.07;;;3.78;;
13309;SDS011;6723;48.256;16.402;2022-07-22T08:34:57;6.35;;;4.05;;
13309;SDS011;6723;48.256;16.402;2022-07-22T08:37:22;3.83;;;3.45;;
13309;SDS011;6723;48.256;16.402;2022-07-22T08:39:49;4.25;;;3.75;;
13309;SDS011;6723;48.256;16.402;2022-07-22T08:42:15;4.53;;;3.58;;
13309;SDS011;6723;48.256;16.402;2022-07-22T08:44:41;7.93;;;3.83;;
13309;SDS011;6723;48.256;16.402;2022-07-22T08:47:06;8.07;;;3.80;;
13309;SDS011;6723;48.256;16.402;2022-07-22T08:49:32;3.67;;;3.38;;
13309;SDS011;6723;48.256;16.402;2022-07-22T08:51:58;3.70;;;3.40;;
13309;SDS011;6723;48.256;16.402;2022-07-22T08:54:24;4.40;;;3.30;;
13309;SDS011;6723;48.256;16.402;2022-07-22T08:56:51;7.65;;;3.80;;
13309;SDS011;6723;48.256;16.402;2022-07-22T08:59:17;4.13;;;3.30;;
13309;SDS011;6723;48.256;16.402;2022-07-22T09:04:30;4.20;;;3.80;;
13309;SDS011;6723;48.256;16.402;2022-07-22T09:06:56;7.35;;;3.70;;
13309;SDS011;6723;48.256;16.402;2022-07-22T09:09:30;3.92;;;3.50;;
13309;SDS011;6723;48.256;16.402;2022-07-22T09:12:04;4.00;;;3.60;;
13309;SDS011;6723;48.256;16.402;2022-07-22T09:14:44;4.85;;;3.40;;
13309;SDS011;6723;48.256;16.402;2022-07-22T09:17:30;4.07;;;3.30;;
13309;SDS011;6723;48.256;16.402;2022-07-22T09:20:01;5.82;;;3.25;;
13309;SDS011;6723;48.256;16.402;2022-07-22T09:22:47;5.10;;;3.22;;
13309;SDS011;6723;48.256;16.402;2022-07-22T09:25:33;4.35;;;3.25;;
13309;SDS011;6723;48.256;16.402;2022-07-22T09:30:32;3.50;;;3.20;;
13309;SDS011;6723;48.256;16.402;2022-07-22T09:33:03;4.15;;;3.20;;
13309;SDS011;6723;48.256;16.402;2022-07-22T09:35:30;5.28;;;3.47;;
13309;SDS011;6723;48.256;16.402;2022-07-22T09:38:00;3.78;;;3.42;;
13309;SDS011;6723;48.256;16.402;2022-07-22T09:40:29;3.85;;;3.53;;
13309;SDS011;6723;48.256;16.402;2022-07-22T09:43:01;4.22;;;3.30;;
13309;SDS011;6723;48.256;16.402;2022-07-22T09:45:29;5.25;;;3.45;;
13309;SDS011;6723;48.256;16.402;2022-07-22T09:47:56;5.50;;;3.75;;
13309;SDS011;6723;48.256;16.402;2022-07-22T09:50:23;6.20;;;3.38;;
13309;SDS011;6723;48.256;16.402;2022-07-22T09:52:51;3.65;;;3.35;;
13309;SDS011;6723;48.256;16.402;2022-07-22T09:55:21;3.40;;;3.10;;
13309;SDS011;6723;48.256;16.402;2022-07-22T09:57:48;3.70;;;3.30;;
13309;SDS011;6723;48.256;16.402;2022-07-22T10:00:16;5.00;;;3.58;;
13309;SDS011;6723;48.256;16.402;2022-07-22T10:02:48;6.25;;;3.75;;
13309;SDS011;6723;48.256;16.402;2022-07-22T10:05:18;6.13;;;3.40;;
13309;SDS011;6723;48.256;16.402;2022-07-22T10:07:45;5.72;;;3.72;;
13309;SDS011;6723;48.256;16.402;2022-07-22T10:10:16;5.15;;;3.70;;
13309;SDS011;6723;48.256;16.402;2022-07-22T10:12:45;7.72;;;4.15;;
13309;SDS011;6723;48.256;16.402;2022-07-22T10:15:14;5.97;;;4.32;;
13309;SDS011;6723;48.256;16.402;2022-07-22T10:17:45;4.20;;;3.80;;
13309;SDS011;6723;48.256;16.402;2022-07-22T10:20:16;7.78;;;4.60;;
13309;SDS011;6723;48.256;16.402;2022-07-22T10:22:44;6.22;;;4.82;;
13309;SDS011;6723;48.256;16.402;2022-07-22T10:25:14;4.68;;;4.28;;
13309;SDS011;6723;48.256;16.402;2022-07-22T10:30:12;6.05;;;4.93;;
13309;SDS011;6723;48.256;16.402;2022-07-22T10:32:40;8.48;;;4.80;;
13309;SDS011;6723;48.256;16.402;2022-07-22T10:40:22;8.15;;;4.20;;
13309;SDS011;6723;48.256;16.402;2022-07-22T10:45:25;6.72;;;4.50;;
13309;SDS011;6723;48.256;16.402;2022-07-22T10:47:55;10.10;;;6.10;;
13309;SDS011;6723;48.256;16.402;2022-07-22T10:53:18;7.25;;;6.28;;
13309;SDS011;6723;48.256;16.402;2022-07-22T10:56:06;8.05;;;4.85;;
13309;SDS011;6723;48.256;16.402;2022-07-22T10:58:40;6.50;;;5.32;;
13309;SDS011;6723;48.256;16.402;2022-07-22T11:01:10;5.57;;;4.28;;
13309;SDS011;6723;48.256;16.402;2022-07-22T11:03:38;4.40;;;4.00;;
13309;SDS011;6723;48.256;16.402;2022-07-22T11:06:20;5.13;;;4.05;;
13309;SDS011;6723;48.256;16.402;2022-07-22T11:08:50;4.97;;;4.32;;
13309;SDS011;6723;48.256;16.402;2022-07-22T11:11:34;4.60;;;4.05;;
13309;SDS011;6723;48.256;16.402;2022-07-22T11:14:01;6.47;;;4.05;;
13309;SDS011;6723;48.256;16.402;2022-07-22T11:16:27;7.65;;;5.72;;
13309;SDS011;6723;48.256;16.402;2022-07-22T11:18:54;5.93;;;5.07;;
13309;SDS011;6723;48.256;16.402;2022-07-22T11:21:23;7.07;;;6.40;;
13309;SDS011;6723;48.256;16.402;2022-07-22T11:23:53;6.68;;;5.55;;
13309;SDS011;6723;48.256;16.402;2022-07-22T11:26:43;5.18;;;4.78;;
13309;SDS011;6723;48.256;16.402;2022-07-22T11:29:10;5.78;;;5.07;;
13309;SDS011;6723;48.256;16.402;2022-07-22T11:31:40;5.40;;;4.28;;
13309;SDS011;6723;48.256;16.402;2022-07-22T11:34:07;4.22;;;3.92;;
13309;SDS011;6723;48.256;16.402;2022-07-22T11:36:35;5.30;;;4.15;;
13309;SDS011;6723;48.256;16.402;2022-07-22T11:39:03;4.97;;;4.00;;
13309;SDS011;6723;48.256;16.402;2022-07-22T11:41:29;4.53;;;4.05;;
13309;SDS011;6723;48.256;16.402;2022-07-22T11:43:56;6.40;;;4.72;;
13309;SDS011;6723;48.256;16.402;2022-07-22T11:46:24;4.78;;;4.38;;
13309;SDS011;6723;48.256;16.402;2022-07-22T11:48:51;4.97;;;4.47;;
13309;SDS011;6723;48.256;16.402;2022-07-22T11:51:27;5.25;;;4.38;;
13309;SDS011;6723;48.256;16.402;2022-07-22T11:53:55;5.03;;;4.40;;
13309;SDS011;6723;48.256;16.402;2022-07-22T11:56:21;5.82;;;4.47;;
13309;SDS011;6723;48.256;16.402;2022-07-22T11:58:48;5.07;;;4.63;;
13309;SDS011;6723;48.256;16.402;2022-07-22T12:01:15;5.38;;;4.72;;
13309;SDS011;6723;48.256;16.402;2022-07-22T12:03:47;6.20;;;4.60;;
13309;SDS011;6723;48.256;16.402;2022-07-22T12:06:16;5.60;;;5.10;;
13309;SDS011;6723;48.256;16.402;2022-07-22T12:08:44;5.38;;;4.88;;
13309;SDS011;6723;48.256;16.402;2022-07-22T12:11:13;5.30;;;4.90;;
13309;SDS011;6723;48.256;16.402;2022-07-22T12:13:45;6.90;;;5.35;;
13309;SDS011;6723;48.256;16.402;2022-07-22T12:16:26;5.75;;;5.18;;
13309;SDS011;6723;48.256;16.402;2022-07-22T12:21:19;8.38;;;5.25;;
13309;SDS011;6723;48.256;16.402;2022-07-22T12:23:54;6.38;;;5.28;;
13309;SDS011;6723;48.256;16.402;2022-07-22T12:26:38;9.30;;;5.50;;
13309;SDS011;6723;48.256;16.402;2022-07-22T12:31:44;5.90;;;5.30;;
13309;SDS011;6723;48.256;16.402;2022-07-22T12:47:38;5.60;;;5.00;;
13309;SDS011;6723;48.256;16.402;2022-07-22T12:50:20;5.60;;;4.90;;
13309;SDS011;6723;48.256;16.402;2022-07-22T12:52:58;5.80;;;5.25;;
13309;SDS011;6723;48.256;16.402;2022-07-22T12:55:29;5.88;;;5.38;;
13309;SDS011;6723;48.256;16.402;2022-07-22T12:57:56;6.55;;;5.53;;
13309;SDS011;6723;48.256;16.402;2022-07-22T13:00:23;6.05;;;5.43;;
13309;SDS011;6723;48.256;16.402;2022-07-22T13:03:00;7.60;;;5.60;;
13309;SDS011;6723;48.256;16.402;2022-07-22T13:05:27;6.18;;;4.85;;
13309;SDS011;6723;48.256;16.402;2022-07-22T13:07:53;6.15;;;5.55;;
13309;SDS011;6723;48.256;16.402;2022-07-22T13:10:20;6.10;;;5.50;;
13309;SDS011;6723;48.256;16.402;2022-07-22T13:12:48;7.40;;;5.57;;
13309;SDS011;6723;48.256;16.402;2022-07-22T13:15:14;5.95;;;5.40;;
13309;SDS011;6723;48.256;16.402;2022-07-22T13:17:41;7.82;;;5.80;;
13309;SDS011;6723;48.256;16.402;2022-07-22T13:20:08;6.60;;;5.75;;
13309;SDS011;6723;48.256;16.402;2022-07-22T13:22:35;12.38;;;5.90;;
13309;SDS011;6723;48.256;16.402;2022-07-22T13:25:01;6.38;;;5.22;;
13309;SDS011;6723;48.256;16.402;2022-07-22T13:27:28;6.68;;;6.07;;
13309;SDS011;6723;48.256;16.402;2022-07-22T13:29:54;6.22;;;5.63;;
13309;SDS011;6723;48.256;16.402;2022-07-22T13:32:20;6.60;;;5.82;;
13309;SDS011;6723;48.256;16.402;2022-07-22T13:34:46;6.93;;;5.40;;
13309;SDS011;6723;48.256;16.402;2022-07-22T13:37:11;6.40;;;5.80;;
13309;SDS011;6723;48.256;16.402;2022-07-22T13:39:37;7.38;;;6.05;;
13309;SDS011;6723;48.256;16.402;2022-07-22T13:42:04;6.03;;;5.53;;
13309;SDS011;6723;48.256;16.402;2022-07-22T13:44:30;8.95;;;6.07;;
13309;SDS011;6723;48.256;16.402;2022-07-22T13:46:56;6.22;;;5.65;;
13309;SDS011;6723;48.256;16.402;2022-07-22T13:49:23;7.10;;;6.03;;
13309;SDS011;6723;48.256;16.402;2022-07-22T13:51:49;6.88;;;6.18;;
13309;SDS011;6723;48.256;16.402;2022-07-22T13:54:22;6.78;;;6.10;;
13309;SDS011;6723;48.256;16.402;2022-07-22T13:56:48;6.30;;;5.80;;
13309;SDS011;6723;48.256;16.402;2022-07-22T13:59:14;7.75;;;6.43;;
13309;SDS011;6723;48.256;16.402;2022-07-22T14:01:40;6.70;;;6.10;;
13309;SDS011;6723;48.256;16.402;2022-07-22T14:04:06;7.35;;;6.40;;
13309;SDS011;6723;48.256;16.402;2022-07-22T14:06:32;10.25;;;5.80;;
13309;SDS011;6723;48.256;16.402;2022-07-22T14:08:59;7.15;;;6.20;;
13309;SDS011;6723;48.256;16.402;2022-07-22T14:11:25;6.68;;;6.18;;
13309;SDS011;6723;48.256;16.402;2022-07-22T14:13:51;11.45;;;6.45;;
13309;SDS011;6723;48.256;16.402;2022-07-22T14:16:17;7.47;;;5.97;;
13309;SDS011;6723;48.256;16.402;2022-07-22T14:21:29;8.18;;;6.60;;
13309;SDS011;6723;48.256;16.402;2022-07-22T14:23:55;7.13;;;6.45;;
13309;SDS011;6723;48.256;16.402;2022-07-22T14:26:21;6.85;;;6.25;;
13309;SDS011;6723;48.256;16.402;2022-07-22T14:28:47;8.02;;;6.50;;
13309;SDS011;6723;48.256;16.402;2022-07-22T14:31:13;8.73;;;6.97;;
13309;SDS011;6723;48.256;16.402;2022-07-22T14:33:38;10.25;;;6.25;;
13309;SDS011;6723;48.256;16.402;2022-07-22T14:36:04;7.88;;;7.18;;
13309;SDS011;6723;48.256;16.402;2022-07-22T14:38:30;7.07;;;6.47;;
13309;SDS011;6723;48.256;16.402;2022-07-22T14:40:56;8.18;;;6.10;;
13309;SDS011;6723;48.256;16.402;2022-07-22T14:45:51;7.28;;;6.60;;
13309;SDS011;6723;48.256;16.402;2022-07-22T14:48:17;7.40;;;6.60;;
13309;SDS011;6723;48.256;16.402;2022-07-22T14:50:43;7.40;;;6.60;;
13309;SDS011;6723;48.256;16.402;2022-07-22T14:53:09;7.82;;;6.90;;
13309;SDS011;6723;48.256;16.402;2022-07-22T14:55:36;7.35;;;6.45;;
13309;SDS011;6723;48.256;16.402;2022-07-22T14:58:01;8.88;;;6.78;;
13309;SDS011;6723;48.256;16.402;2022-07-22T15:00:27;8.15;;;7.35;;
13309;SDS011;6723;48.256;16.402;2022-07-22T15:02:53;7.75;;;7.07;;
13309;SDS011;6723;48.256;16.402;2022-07-22T15:05:18;7.93;;;7.05;;
13309;SDS011;6723;48.256;16.402;2022-07-22T15:07:44;7.93;;;7.13;;
13309;SDS011;6723;48.256;16.402;2022-07-22T15:10:10;12.40;;;7.43;;
13309;SDS011;6723;48.256;16.402;2022-07-22T15:12:36;8.35;;;7.50;;
13309;SDS011;6723;48.256;16.402;2022-07-22T15:15:02;7.55;;;6.60;;
13309;SDS011;6723;48.256;16.402;2022-07-22T15:17:35;8.65;;;7.03;;
13309;SDS011;6723;48.256;16.402;2022-07-22T15:20:03;7.70;;;6.88;;
13309;SDS011;6723;48.256;16.402;2022-07-22T15:22:31;7.70;;;7.07;;
13309;SDS011;6723;48.256;16.402;2022-07-22T15:24:58;7.90;;;6.80;;
13309;SDS011;6723;48.256;16.402;2022-07-22T15:27:24;10.20;;;7.40;;
13309;SDS011;6723;48.256;16.402;2022-07-22T15:29:50;8.70;;;7.80;;
13309;SDS011;6723;48.256;16.402;2022-07-22T15:32:16;9.35;;;7.65;;